Time;durP1;ratioP1;P1;durP2;ratioP2;P2;SDS_P1;SDS_P2;PMS_P1;PMS_P2;Temp;Humidity;BMP_temperature;BMP_pressure;BME280_temperature;BME280_humidity;BME280_pressure;Samples;Min_cycle;Max_cycle;Signal;HPM_P1;HPM_P2
2024/02/23 00:03:18;;;;;;;12.98;1.70;;;5.80;99.90;;;;;;20692000;28;20515;-41
2024/02/23 00:13:18;;;;;;;10.73;1.52;;;6.20;83.20;;;;;;20699330;28;20073;-42
2024/02/23 00:23:19;;;;;;;12.40;1.38;;;6.40;51.30;;;;;;20698975;28;22722;-40
2024/02/23 00:33:19;;;;;;;12.85;2.40;;;6.50;37.90;;;;;;20695354;28;20049;-40
2024/02/23 00:43:20;;;;;;;10.60;1.43;;;6.60;23.80;;;;;;20685806;28;20407;-41
2024/02/23 00:53:21;;;;;;;11.30;1.43;;;6.60;21.20;;;;;;20687844;28;20469;-41
2024/02/23 01:03:22;;;;;;;11.93;2.83;;;6.50;13.80;;;;;;20691027;28;20052;-40
2024/02/23 01:13:23;;;;;;;7.68;1.60;;;6.50;18.10;;;;;;20684945;28;20038;-41
2024/02/23 01:23:24;;;;;;;12.05;1.10;;;6.50;22.30;;;;;;20687454;28;20121;-40
2024/02/23 01:33:24;;;;;;;5.20;0.80;;;6.20;16.10;;;;;;20691991;28;20153;-41
2024/02/23 01:43:25;;;;;;;7.07;1.27;;;6.00;17.60;;;;;;20694519;28;20472;-40
2024/02/23 01:53:27;;;;;;;6.13;0.70;;;5.90;27.50;;;;;;20682705;28;20435;-41
2024/02/23 02:03:28;;;;;;;9.13;1.50;;;5.70;20.60;;;;;;20690690;28;20126;-41
2024/02/23 02:13:29;;;;;;;13.02;1.63;;;5.50;29.90;;;;;;20684829;28;20358;-40
2024/02/23 02:23:30;;;;;;;9.02;1.77;;;5.40;60.20;;;;;;20688578;28;20042;-40
2024/02/23 02:33:35;;;;;;;7.93;1.00;;;5.70;56.00;;;;;;20683194;28;20053;-41
2024/02/23 02:43:36;;;;;;;7.00;1.10;;;5.70;58.20;;;;;;20688067;28;20882;-40
2024/02/23 02:53:37;;;;;;;7.32;1.10;;;5.80;52.90;;;;;;20687429;28;20034;-40
2024/02/23 03:03:39;;;;;;;4.45;1.13;;;5.80;57.80;;;;;;20684761;28;20065;-40
2024/02/23 03:13:39;;;;;;;8.07;1.17;;;5.90;53.10;;;;;;20692271;28;20132;-41
2024/02/23 03:23:40;;;;;;;6.13;1.20;;;5.80;52.60;;;;;;20694917;28;20033;-40
2024/02/23 03:33:41;;;;;;;8.40;1.00;;;5.80;44.20;;;;;;20689644;28;20422;-40
2024/02/23 03:43:41;;;;;;;5.47;1.10;;;5.70;39.50;;;;;;20705543;28;20445;-40
2024/02/23 03:53:42;;;;;;;10.77;1.47;;;5.70;36.90;;;;;;20703495;28;20536;-40
2024/02/23 04:03:43;;;;;;;6.07;1.00;;;5.60;38.10;;;;;;20703705;28;20477;-40
2024/02/23 04:13:43;;;;;;;6.88;1.42;;;5.40;46.70;;;;;;20699906;28;20030;-40
2024/02/23 04:23:44;;;;;;;10.35;1.50;;;5.40;50.10;;;;;;20692937;28;20398;-40
2024/02/23 04:33:45;;;;;;;9.93;1.33;;;5.30;56.50;;;;;;20699844;28;20050;-40
2024/02/23 04:43:45;;;;;;;12.35;1.70;;;5.40;57.80;;;;;;20695846;28;20489;-39
2024/02/23 04:53:47;;;;;;;6.90;1.50;;;5.40;66.40;;;;;;20693550;28;20053;-39
2024/02/23 05:03:48;;;;;;;9.05;1.75;;;5.50;66.80;;;;;;20697338;28;20032;-40
2024/02/23 05:13:49;;;;;;;10.13;2.10;;;5.50;65.60;;;;;;20708720;28;20030;-40
2024/02/23 05:23:49;;;;;;;5.75;2.47;;;5.60;60.80;;;;;;20707698;28;20077;-40
2024/02/23 05:33:50;;;;;;;6.90;2.27;;;5.70;51.20;;;;;;20706958;28;20044;-40
2024/02/23 05:43:51;;;;;;;8.65;3.10;;;5.80;41.40;;;;;;20709756;28;20465;-40
2024/02/23 05:53:55;;;;;;;11.23;3.30;;;5.80;37.40;;;;;;20706136;28;20062;-40
2024/02/23 06:03:56;;;;;;;11.30;3.80;;;5.90;31.60;;;;;;20697003;28;20588;-40
2024/02/23 06:13:56;;;;;;;7.80;3.30;;;6.00;29.40;;;;;;20700432;28;20386;-40
2024/02/23 06:23:57;;;;;;;6.25;3.33;;;6.00;24.50;;;;;;20701317;28;20459;-40
2024/02/23 06:33:58;;;;;;;5.47;2.47;;;6.10;21.50;;;;;;20703591;28;20053;-41
2024/02/23 06:43:58;;;;;;;10.35;2.60;;;6.00;21.50;;;;;;20706651;28;20042;-41
2024/02/23 06:53:59;;;;;;;9.60;3.13;;;6.00;18.60;;;;;;20709070;28;20034;-40
2024/02/23 07:03:59;;;;;;;13.98;2.65;;;6.00;15.90;;;;;;20707393;28;20125;-40
2024/02/23 07:14:00;;;;;;;6.65;2.83;;;6.00;14.70;;;;;;20715738;28;20081;-40
2024/02/23 07:24:01;;;;;;;6.45;2.30;;;6.10;7.60;;;;;;20726858;28;20045;-41
2024/02/23 07:34:01;;;;;;;3.53;1.70;;;6.30;3.90;;;;;;20719837;28;20125;-39
2024/02/23 07:44:02;;;;;;;6.80;1.48;;;6.30;2.90;;;;;;20717839;28;20096;-39
2024/02/23 07:54:03;;;;;;;9.07;2.40;;;6.30;1.00;;;;;;20704497;28;20046;-39
2024/02/23 08:04:03;;;;;;;7.43;1.92;;;6.30;1.00;;;;;;20687390;28;20448;-39
2024/02/23 08:14:04;;;;;;;6.68;1.30;;;6.30;1.00;;;;;;20713918;28;20032;-39
2024/02/23 08:24:05;;;;;;;3.92;1.02;;;6.20;5.10;;;;;;20708770;28;20057;-39
2024/02/23 08:34:06;;;;;;;14.75;2.08;;;5.90;14.40;;;;;;20686688;28;20050;-39
2024/02/23 08:44:07;;;;;;;7.35;1.75;;;5.80;26.40;;;;;;20690897;28;20041;-40
2024/02/23 08:54:08;;;;;;;8.32;1.55;;;5.80;35.60;;;;;;20694240;28;20056;-40
2024/02/23 09:04:08;;;;;;;7.35;1.60;;;5.80;41.20;;;;;;20709049;28;20148;-39
2024/02/23 09:14:09;;;;;;;9.90;1.80;;;5.90;60.50;;;;;;20707049;28;20038;-40
2024/02/23 09:24:09;;;;;;;6.43;1.80;;;5.90;72.00;;;;;;20709043;28;20129;-39
2024/02/23 09:34:10;;;;;;;6.63;1.90;;;6.00;84.30;;;;;;20703910;28;20473;-39
2024/02/23 09:44:12;;;;;;;10.68;2.55;;;6.00;79.60;;;;;;20706563;28;20441;-40
2024/02/23 09:54:13;;;;;;;4.25;1.98;;;6.20;77.70;;;;;;20701987;28;20038;-40
2024/02/23 10:04:14;;;;;;;3.60;1.40;;;6.60;50.80;;;;;;20697213;28;21854;-40
2024/02/23 10:14:15;;;;;;;7.55;2.15;;;6.60;49.30;;;;;;20700751;28;20477;-39
2024/02/23 10:24:19;;;;;;;5.93;1.60;;;6.80;53.10;;;;;;20707995;28;20029;-40
2024/02/23 10:34:20;;;;;;;7.10;2.40;;;6.70;46.40;;;;;;20699769;28;20041;-40
2024/02/23 10:44:21;;;;;;;7.82;2.05;;;6.90;39.90;;;;;;20679067;28;20034;-39
2024/02/23 10:54:22;;;;;;;6.60;1.98;;;7.20;27.50;;;;;;20710052;28;20046;-40
2024/02/23 11:04:24;;;;;;;7.22;2.60;;;7.40;25.10;;;;;;20720246;28;20045;-40
2024/02/23 11:14:35;;;;;;;7.40;2.03;;;7.60;13.70;;;;;;20723481;28;20042;-45
2024/02/23 11:24:44;;;;;;;6.68;1.77;;;7.90;5.00;;;;;;20710865;28;20034;-39
2024/02/23 11:34:57;;;;;;;7.82;2.15;;;8.00;1.00;;;;;;20702237;28;20085;-39
2024/02/23 11:44:58;;;;;;;5.85;1.88;;;8.00;1.00;;;;;;20698750;28;20489;-40
2024/02/23 11:54:59;;;;;;;5.30;1.58;;;8.10;1.00;;;;;;20672026;28;20061;-40
2024/02/23 12:05:00;;;;;;;6.03;1.50;;;8.10;1.00;;;;;;20684381;28;20125;-40
2024/02/23 12:15:02;;;;;;;4.53;1.58;;;8.30;1.00;;;;;;20688243;28;20119;-40
2024/02/23 12:25:02;;;;;;;9.77;1.58;;;8.30;1.00;;;;;;20683869;28;20366;-40
2024/02/23 12:35:05;;;;;;;3.08;1.50;;;8.40;1.00;;;;;;20676927;28;20152;-39
2024/02/23 12:45:06;;;;;;;6.35;1.25;;;9.60;1.00;;;;;;20673522;28;20040;-39
2024/02/23 12:55:08;;;;;;;4.30;1.75;;;9.20;1.00;;;;;;20665681;28;20038;-39
2024/02/23 13:05:08;;;;;;;5.10;1.15;;;8.80;1.00;;;;;;20657135;28;20072;-40
2024/02/23 13:15:11;;;;;;;3.70;0.90;;;8.70;1.00;;;;;;20672543;28;20038;-40
2024/02/23 13:25:11;;;;;;;5.95;1.10;;;8.70;1.00;;;;;;20683687;28;22415;-40
2024/02/23 13:35:14;;;;;;;3.95;0.70;;;8.70;1.00;;;;;;20688554;28;20058;-39
2024/02/23 13:45:14;;;;;;;3.70;0.93;;;8.80;1.00;;;;;;20689779;28;20522;-40
2024/02/23 13:55:15;;;;;;;5.47;0.73;;;8.90;1.00;;;;;;20674957;28;20034;-39
2024/02/23 14:05:18;;;;;;;5.80;1.40;;;8.90;1.00;;;;;;20665495;28;20959;-39
2024/02/23 14:15:18;;;;;;;3.20;0.60;;;8.90;1.00;;;;;;20676175;28;20038;-40
2024/02/23 14:25:19;;;;;;;2.67;0.70;;;8.80;1.00;;;;;;20666522;28;20048;-39
2024/02/23 14:35:20;;;;;;;3.28;0.80;;;9.00;1.00;;;;;;20666200;28;20058;-39
2024/02/23 14:45:23;;;;;;;1.67;0.50;;;8.90;1.00;;;;;;20672261;28;20119;-39
2024/02/23 14:55:23;;;;;;;1.48;0.40;;;9.00;1.00;;;;;;20679489;28;20042;-39
2024/02/23 15:05:24;;;;;;;2.40;0.50;;;9.10;1.00;;;;;;20676375;28;20052;-39
2024/02/23 15:15:25;;;;;;;1.27;0.47;;;8.90;1.00;;;;;;20669130;28;20144;-40
2024/02/23 15:25:25;;;;;;;1.37;0.50;;;8.70;1.00;;;;;;20658441;28;20464;-39
2024/02/23 15:35:27;;;;;;;2.28;0.65;;;8.70;1.00;;;;;;20679804;28;20480;-39
2024/02/23 15:45:28;;;;;;;5.03;1.10;;;9.00;1.00;;;;;;20684734;28;20042;-40
2024/02/23 15:55:28;;;;;;;2.05;1.20;;;9.10;1.00;;;;;;20666205;28;20049;-40
2024/02/23 16:05:29;;;;;;;2.55;1.25;;;8.80;1.00;;;;;;20658277;28;20053;-39
2024/02/23 16:15:29;;;;;;;2.88;1.42;;;8.80;1.00;;;;;;20662758;28;20494;-39
2024/02/23 16:25:30;;;;;;;4.43;1.33;;;8.70;1.00;;;;;;20674504;28;20369;-39
2024/02/23 16:35:30;;;;;;;4.75;1.30;;;8.60;1.00;;;;;;20656919;28;20473;-39
2024/02/23 16:45:31;;;;;;;3.55;1.20;;;8.30;1.00;;;;;;20662826;28;20115;-39
2024/02/23 16:55:32;;;;;;;5.13;1.45;;;8.20;1.00;;;;;;20658223;28;20497;-40
2024/02/23 17:05:32;;;;;;;3.20;1.17;;;8.00;1.00;;;;;;20680784;28;20034;-39
2024/02/23 17:15:33;;;;;;;4.17;1.70;;;7.30;1.20;;;;;;20694874;28;20044;-40
2024/02/23 17:25:33;;;;;;;4.33;1.60;;;6.80;19.20;;;;;;20711271;28;20603;-39
2024/02/23 17:35:34;;;;;;;5.15;1.83;;;6.50;47.00;;;;;;20710044;28;20480;-39
2024/02/23 17:45:35;;;;;;;3.58;1.45;;;6.20;89.20;;;;;;20700574;28;20088;-40
2024/02/23 17:55:35;;;;;;;3.67;1.70;;;6.10;99.90;;;;;;20693252;28;20040;-40
2024/02/23 18:05:36;;;;;;;7.22;2.50;;;5.90;99.90;;;;;;20696049;28;20516;-39
2024/02/23 18:15:37;;;;;;;16.60;8.23;;;5.80;99.90;;;;;;20699334;28;20044;-40
2024/02/23 18:25:37;;;;;;;16.08;5.75;;;5.60;99.90;;;;;;20675503;28;20329;-40
2024/02/23 18:35:38;;;;;;;3.83;2.50;;;5.40;99.90;;;;;;20697309;28;20045;-41
2024/02/23 18:45:38;;;;;;;9.35;5.43;;;5.50;99.90;;;;;;20696564;28;20053;-41
2024/02/23 18:55:39;;;;;;;5.53;1.83;;;5.40;99.90;;;;;;20704421;28;20042;-41
2024/02/23 19:05:40;;;;;;;2.88;0.98;;;5.50;99.90;;;;;;20705517;28;20836;-41
2024/02/23 19:15:40;;;;;;;5.30;1.65;;;5.50;99.90;;;;;;20723804;28;20477;-40
2024/02/23 19:25:41;;;;;;;25.63;10.52;;;5.60;99.90;;;;;;20706014;28;20092;-40
2024/02/23 19:35:41;;;;;;;4.00;1.55;;;5.70;99.90;;;;;;20723964;28;20045;-40
2024/02/23 19:45:42;;;;;;;2.35;1.33;;;5.80;99.90;;;;;;20723678;28;20045;-40
2024/02/23 19:55:45;;;;;;;3.13;1.20;;;5.90;99.90;;;;;;20719003;28;20563;-53
2024/02/23 20:05:46;;;;;;;6.43;3.15;;;5.80;99.90;;;;;;20694586;28;20520;-41
2024/02/23 20:15:47;;;;;;;4.55;2.10;;;5.60;99.90;;;;;;20684132;28;20034;-41
2024/02/23 20:25:48;;;;;;;2.15;1.27;;;5.30;99.90;;;;;;20685232;28;20034;-41
2024/02/23 20:35:49;;;;;;;3.70;1.88;;;5.20;99.90;;;;;;20687451;28;20046;-41
2024/02/23 20:45:51;;;;;;;2.42;1.40;;;5.10;99.90;;;;;;20686702;28;20056;-40
2024/02/23 20:55:51;;;;;;;4.45;2.47;;;5.20;99.90;;;;;;20694947;28;20319;-41
2024/02/23 21:05:52;;;;;;;5.07;2.38;;;5.30;99.90;;;;;;20698760;28;20548;-40
2024/02/23 21:15:53;;;;;;;4.38;2.35;;;5.30;99.90;;;;;;20679190;28;20600;-41
2024/02/23 21:25:54;;;;;;;5.03;2.25;;;5.40;99.90;;;;;;20702262;28;20132;-40
2024/02/23 21:35:55;;;;;;;4.80;2.20;;;5.50;99.90;;;;;;20704801;28;20050;-41
2024/02/23 21:45:55;;;;;;;3.70;2.00;;;5.40;99.90;;;;;;20701353;28;20474;-41
2024/02/23 21:55:56;;;;;;;2.80;1.50;;;5.50;99.90;;;;;;20697766;28;20045;-41
2024/02/23 22:05:57;;;;;;;4.47;1.88;;;5.50;99.90;;;;;;20700836;28;20046;-41
2024/02/23 22:15:57;;;;;;;3.33;1.95;;;5.50;99.90;;;;;;20711012;28;20065;-41
2024/02/23 22:25:58;;;;;;;5.30;2.27;;;5.50;99.90;;;;;;20710773;28;20120;-41
2024/02/23 22:35:59;;;;;;;2.92;2.00;;;5.40;99.90;;;;;;20709466;28;20519;-41
2024/02/23 22:46:00;;;;;;;4.50;2.35;;;5.50;99.90;;;;;;20724611;28;20050;-41
2024/02/23 22:56:01;;;;;;;5.68;3.03;;;5.30;99.90;;;;;;20726554;28;20036;-40
2024/02/23 23:06:03;;;;;;;7.03;3.87;;;5.30;99.90;;;;;;20727198;28;20042;-40
2024/02/23 23:16:04;;;;;;;7.70;4.57;;;5.20;99.90;;;;;;20725606;28;20461;-40
2024/02/23 23:26:04;;;;;;;7.65;4.45;;;5.10;99.90;;;;;;20723681;28;20125;-40
2024/02/23 23:36:06;;;;;;;10.00;5.93;;;5.10;99.90;;;;;;20722395;28;20045;-39
2024/02/23 23:46:06;;;;;;;11.27;6.78;;;4.90;99.90;;;;;;20720477;28;20137;-39
2024/02/23 23:56:12;;;;;;;10.25;5.50;;;4.90;99.90;;;;;;20724222;28;20049;-40
